sensor_id;sensor_type;location;lat;lon;timestamp;temperature;humidity
20803;DHT22;10562;-33.856;151.182;2022-12-10T00:00:17;24.00;99.90
20803;DHT22;10562;-33.856;151.182;2022-12-10T00:02:48;23.80;99.90
20803;DHT22;10562;-33.856;151.182;2022-12-10T00:05:19;23.90;99.90
20803;DHT22;10562;-33.856;151.182;2022-12-10T00:07:54;23.90;99.90
20803;DHT22;10562;-33.856;151.182;2022-12-10T00:10:25;23.90;99.90
20803;DHT22;10562;-33.856;151.182;2022-12-10T00:12:56;23.40;99.90
20803;DHT22;10562;-33.856;151.182;2022-12-10T00:15:29;23.80;99.90
20803;DHT22;10562;-33.856;151.182;2022-12-10T00:18:00;23.90;99.90
20803;DHT22;10562;-33.856;151.182;2022-12-10T00:20:31;23.70;99.90
20803;DHT22;10562;-33.856;151.182;2022-12-10T00:23:02;23.30;99.90
20803;DHT22;10562;-33.856;151.182;2022-12-10T00:25:33;23.10;99.90
20803;DHT22;10562;-33.856;151.182;2022-12-10T00:28:07;23.00;99.90
20803;DHT22;10562;-33.856;151.182;2022-12-10T00:30:40;22.90;99.90
20803;DHT22;10562;-33.856;151.182;2022-12-10T00:33:11;22.80;99.90
20803;DHT22;10562;-33.856;151.182;2022-12-10T00:35:42;22.30;99.90
20803;DHT22;10562;-33.856;151.182;2022-12-10T00:38:14;22.10;99.90
20803;DHT22;10562;-33.856;151.182;2022-12-10T00:40:45;22.00;99.90
20803;DHT22;10562;-33.856;151.182;2022-12-10T00:43:16;22.00;99.90
20803;DHT22;10562;-33.856;151.182;2022-12-10T00:45:48;22.10;99.90
20803;DHT22;10562;-33.856;151.182;2022-12-10T00:48:20;22.20;99.90
20803;DHT22;10562;-33.856;151.182;2022-12-10T00:50:57;21.90;99.90
20803;DHT22;10562;-33.856;151.182;2022-12-10T00:53:29;21.90;99.90
20803;DHT22;10562;-33.856;151.182;2022-12-10T00:56:01;22.00;99.90
20803;DHT22;10562;-33.856;151.182;2022-12-10T00:58:33;22.10;99.90
20803;DHT22;10562;-33.856;151.182;2022-12-10T01:01:18;22.30;99.90
20803;DHT22;10562;-33.856;151.182;2022-12-10T01:03:51;22.40;99.90
20803;DHT22;10562;-33.856;151.182;2022-12-10T01:06:23;22.60;99.90
20803;DHT22;10562;-33.856;151.182;2022-12-10T01:08:58;22.50;99.90
20803;DHT22;10562;-33.856;151.182;2022-12-10T01:11:31;22.70;99.90
20803;DHT22;10562;-33.856;151.182;2022-12-10T01:14:02;22.80;99.90
20803;DHT22;10562;-33.856;151.182;2022-12-10T01:16:35;22.90;99.90
20803;DHT22;10562;-33.856;151.182;2022-12-10T01:19:06;22.70;99.90
20803;DHT22;10562;-33.856;151.182;2022-12-10T01:21:38;22.60;99.90
20803;DHT22;10562;-33.856;151.182;2022-12-10T01:24:09;22.60;99.90
20803;DHT22;10562;-33.856;151.182;2022-12-10T01:26:43;22.60;99.90
20803;DHT22;10562;-33.856;151.182;2022-12-10T01:29:15;22.80;99.90
20803;DHT22;10562;-33.856;151.182;2022-12-10T01:31:51;23.30;99.90
20803;DHT22;10562;-33.856;151.182;2022-12-10T01:34:22;23.90;99.90
20803;DHT22;10562;-33.856;151.182;2022-12-10T01:36:54;24.20;99.90
20803;DHT22;10562;-33.856;151.182;2022-12-10T01:39:25;24.50;99.90
20803;DHT22;10562;-33.856;151.182;2022-12-10T01:41:58;24.40;99.90
20803;DHT22;10562;-33.856;151.182;2022-12-10T01:44:57;24.30;99.90
20803;DHT22;10562;-33.856;151.182;2022-12-10T01:47:33;24.00;99.90
20803;DHT22;10562;-33.856;151.182;2022-12-10T01:50:05;24.10;99.90
20803;DHT22;10562;-33.856;151.182;2022-12-10T01:52:37;24.00;99.90
20803;DHT22;10562;-33.856;151.182;2022-12-10T01:55:37;23.90;99.90
20803;DHT22;10562;-33.856;151.182;2022-12-10T01:58:09;23.90;99.90
20803;DHT22;10562;-33.856;151.182;2022-12-10T02:00:51;24.00;99.90
20803;DHT22;10562;-33.856;151.182;2022-12-10T02:03:39;24.30;99.90
20803;DHT22;10562;-33.856;151.182;2022-12-10T02:06:20;24.50;99.90
20803;DHT22;10562;-33.856;151.182;2022-12-10T02:09:01;24.60;99.90
20803;DHT22;10562;-33.856;151.182;2022-12-10T02:11:40;24.70;99.90
20803;DHT22;10562;-33.856;151.182;2022-12-10T02:14:15;24.50;99.90
20803;DHT22;10562;-33.856;151.182;2022-12-10T02:16:55;24.50;99.90
20803;DHT22;10562;-33.856;151.182;2022-12-10T02:19:37;24.50;99.90
20803;DHT22;10562;-33.856;151.182;2022-12-10T02:22:13;24.50;99.90
20803;DHT22;10562;-33.856;151.182;2022-12-10T02:24:45;24.60;99.90
20803;DHT22;10562;-33.856;151.182;2022-12-10T02:27:21;24.50;99.90
20803;DHT22;10562;-33.856;151.182;2022-12-10T02:30:00;24.60;99.90
20803;DHT22;10562;-33.856;151.182;2022-12-10T02:32:38;24.90;99.90
20803;DHT22;10562;-33.856;151.182;2022-12-10T02:35:12;25.10;99.90
20803;DHT22;10562;-33.856;151.182;2022-12-10T02:37:49;25.30;99.90
20803;DHT22;10562;-33.856;151.182;2022-12-10T02:40:27;25.20;99.90
20803;DHT22;10562;-33.856;151.182;2022-12-10T02:43:00;25.10;99.90
20803;DHT22;10562;-33.856;151.182;2022-12-10T02:45:42;24.70;99.90
20803;DHT22;10562;-33.856;151.182;2022-12-10T02:48:16;24.70;99.90
20803;DHT22;10562;-33.856;151.182;2022-12-10T02:50:48;24.90;99.90
20803;DHT22;10562;-33.856;151.182;2022-12-10T02:53:20;25.10;99.90
20803;DHT22;10562;-33.856;151.182;2022-12-10T02:56:04;25.20;99.90
20803;DHT22;10562;-33.856;151.182;2022-12-10T02:58:55;25.30;99.90
20803;DHT22;10562;-33.856;151.182;2022-12-10T03:01:37;25.20;99.90
20803;DHT22;10562;-33.856;151.182;2022-12-10T03:04:13;24.90;99.90
20803;DHT22;10562;-33.856;151.182;2022-12-10T03:06:49;24.50;99.90
20803;DHT22;10562;-33.856;151.182;2022-12-10T03:09:25;24.60;99.90
20803;DHT22;10562;-33.856;151.182;2022-12-10T03:12:01;25.00;99.90
20803;DHT22;10562;-33.856;151.182;2022-12-10T03:14:35;24.70;99.90
20803;DHT22;10562;-33.856;151.182;2022-12-10T03:17:08;24.50;99.90
20803;DHT22;10562;-33.856;151.182;2022-12-10T03:19:42;24.30;99.90
20803;DHT22;10562;-33.856;151.182;2022-12-10T03:22:17;23.90;99.90
20803;DHT22;10562;-33.856;151.182;2022-12-10T03:24:49;24.10;99.90
20803;DHT22;10562;-33.856;151.182;2022-12-10T03:27:23;24.30;99.90
20803;DHT22;10562;-33.856;151.182;2022-12-10T03:29:56;24.70;99.90
20803;DHT22;10562;-33.856;151.182;2022-12-10T03:32:30;25.30;99.90
20803;DHT22;10562;-33.856;151.182;2022-12-10T03:35:02;25.10;99.90
20803;DHT22;10562;-33.856;151.182;2022-12-10T03:37:35;25.10;99.90
20803;DHT22;10562;-33.856;151.182;2022-12-10T03:40:09;25.10;99.90
20803;DHT22;10562;-33.856;151.182;2022-12-10T03:42:41;25.20;99.90
20803;DHT22;10562;-33.856;151.182;2022-12-10T03:45:15;25.40;99.90
20803;DHT22;10562;-33.856;151.182;2022-12-10T03:47:49;25.70;99.90
20803;DHT22;10562;-33.856;151.182;2022-12-10T03:50:20;25.80;99.90
20803;DHT22;10562;-33.856;151.182;2022-12-10T03:52:52;25.70;99.90
20803;DHT22;10562;-33.856;151.182;2022-12-10T03:55:24;25.50;99.90
20803;DHT22;10562;-33.856;151.182;2022-12-10T03:57:56;25.80;99.90
20803;DHT22;10562;-33.856;151.182;2022-12-10T04:00:27;25.20;99.90
20803;DHT22;10562;-33.856;151.182;2022-12-10T04:02:59;24.60;99.90
20803;DHT22;10562;-33.856;151.182;2022-12-10T04:05:31;25.00;99.90
20803;DHT22;10562;-33.856;151.182;2022-12-10T04:08:03;24.90;99.90
20803;DHT22;10562;-33.856;151.182;2022-12-10T04:10:36;25.10;99.90
20803;DHT22;10562;-33.856;151.182;2022-12-10T04:13:07;25.60;99.90
20803;DHT22;10562;-33.856;151.182;2022-12-10T04:15:55;25.70;99.90
20803;DHT22;10562;-33.856;151.182;2022-12-10T04:18:44;24.80;99.90
20803;DHT22;10562;-33.856;151.182;2022-12-10T04:21:15;24.80;99.90
20803;DHT22;10562;-33.856;151.182;2022-12-10T04:24:02;24.80;99.90
20803;DHT22;10562;-33.856;151.182;2022-12-10T04:26:48;25.10;99.90
20803;DHT22;10562;-33.856;151.182;2022-12-10T04:29:22;25.40;99.90
20803;DHT22;10562;-33.856;151.182;2022-12-10T04:31:54;25.80;99.90
20803;DHT22;10562;-33.856;151.182;2022-12-10T04:34:28;26.00;99.90
20803;DHT22;10562;-33.856;151.182;2022-12-10T04:36:59;25.70;99.90
20803;DHT22;10562;-33.856;151.182;2022-12-10T04:39:31;25.70;99.90
20803;DHT22;10562;-33.856;151.182;2022-12-10T04:42:03;25.70;99.90
20803;DHT22;10562;-33.856;151.182;2022-12-10T04:44:34;25.20;99.90
20803;DHT22;10562;-33.856;151.182;2022-12-10T04:47:06;25.30;99.90
20803;DHT22;10562;-33.856;151.182;2022-12-10T04:49:39;25.40;99.90
20803;DHT22;10562;-33.856;151.182;2022-12-10T04:52:12;25.30;99.90
20803;DHT22;10562;-33.856;151.182;2022-12-10T04:54:45;25.60;99.90
20803;DHT22;10562;-33.856;151.182;2022-12-10T04:57:16;25.90;99.90
20803;DHT22;10562;-33.856;151.182;2022-12-10T04:59:47;25.50;99.90
20803;DHT22;10562;-33.856;151.182;2022-12-10T05:02:18;25.60;99.90
20803;DHT22;10562;-33.856;151.182;2022-12-10T05:04:52;25.70;99.90
20803;DHT22;10562;-33.856;151.182;2022-12-10T05:07:26;26.10;99.90
20803;DHT22;10562;-33.856;151.182;2022-12-10T05:09:57;26.10;99.90
20803;DHT22;10562;-33.856;151.182;2022-12-10T05:12:28;25.90;99.90
20803;DHT22;10562;-33.856;151.182;2022-12-10T05:14:59;26.00;99.90
20803;DHT22;10562;-33.856;151.182;2022-12-10T05:17:30;26.20;99.90
20803;DHT22;10562;-33.856;151.182;2022-12-10T05:20:07;25.90;99.90
20803;DHT22;10562;-33.856;151.182;2022-12-10T05:22:38;25.80;99.90
20803;DHT22;10562;-33.856;151.182;2022-12-10T05:25:25;25.70;99.90
20803;DHT22;10562;-33.856;151.182;2022-12-10T05:27:56;25.70;99.90
20803;DHT22;10562;-33.856;151.182;2022-12-10T05:30:27;25.80;99.90
20803;DHT22;10562;-33.856;151.182;2022-12-10T05:32:59;26.10;99.90
20803;DHT22;10562;-33.856;151.182;2022-12-10T05:35:32;26.10;99.90
20803;DHT22;10562;-33.856;151.182;2022-12-10T05:38:03;25.70;99.90
20803;DHT22;10562;-33.856;151.182;2022-12-10T05:40:36;25.50;99.90
20803;DHT22;10562;-33.856;151.182;2022-12-10T05:43:06;25.70;99.90
20803;DHT22;10562;-33.856;151.182;2022-12-10T05:45:37;25.60;99.90
20803;DHT22;10562;-33.856;151.182;2022-12-10T05:48:09;25.40;99.90
20803;DHT22;10562;-33.856;151.182;2022-12-10T05:50:42;24.80;99.90
20803;DHT22;10562;-33.856;151.182;2022-12-10T05:53:13;24.60;99.90
20803;DHT22;10562;-33.856;151.182;2022-12-10T05:55:45;23.80;99.90
20803;DHT22;10562;-33.856;151.182;2022-12-10T05:58:17;23.20;99.90
20803;DHT22;10562;-33.856;151.182;2022-12-10T06:00:48;22.50;99.90
20803;DHT22;10562;-33.856;151.182;2022-12-10T06:03:20;22.30;99.90
20803;DHT22;10562;-33.856;151.182;2022-12-10T06:05:53;22.20;99.90
20803;DHT22;10562;-33.856;151.182;2022-12-10T06:08:24;21.70;99.90
20803;DHT22;10562;-33.856;151.182;2022-12-10T06:10:55;21.50;99.90
20803;DHT22;10562;-33.856;151.182;2022-12-10T06:13:27;21.30;99.90
20803;DHT22;10562;-33.856;151.182;2022-12-10T06:15:58;21.20;99.90
20803;DHT22;10562;-33.856;151.182;2022-12-10T06:18:29;21.10;99.90
20803;DHT22;10562;-33.856;151.182;2022-12-10T06:21:03;21.00;99.90
20803;DHT22;10562;-33.856;151.182;2022-12-10T06:23:35;20.90;99.90
20803;DHT22;10562;-33.856;151.182;2022-12-10T06:26:07;20.80;99.90
20803;DHT22;10562;-33.856;151.182;2022-12-10T06:28:39;20.70;99.90
20803;DHT22;10562;-33.856;151.182;2022-12-10T06:31:11;20.60;99.90
20803;DHT22;10562;-33.856;151.182;2022-12-10T06:33:42;20.50;99.90
20803;DHT22;10562;-33.856;151.182;2022-12-10T06:36:15;20.40;99.90
20803;DHT22;10562;-33.856;151.182;2022-12-10T06:38:47;20.30;99.90
20803;DHT22;10562;-33.856;151.182;2022-12-10T06:41:19;20.30;99.90
20803;DHT22;10562;-33.856;151.182;2022-12-10T06:43:51;20.30;99.90
20803;DHT22;10562;-33.856;151.182;2022-12-10T06:46:26;20.30;99.90
20803;DHT22;10562;-33.856;151.182;2022-12-10T06:48:57;20.20;99.90
20803;DHT22;10562;-33.856;151.182;2022-12-10T06:51:32;20.40;99.90
20803;DHT22;10562;-33.856;151.182;2022-12-10T06:54:06;20.50;99.90
20803;DHT22;10562;-33.856;151.182;2022-12-10T06:56:37;20.50;99.90
20803;DHT22;10562;-33.856;151.182;2022-12-10T06:59:09;20.40;99.90
20803;DHT22;10562;-33.856;151.182;2022-12-10T07:01:40;20.20;99.90
20803;DHT22;10562;-33.856;151.182;2022-12-10T07:04:11;20.10;99.90
20803;DHT22;10562;-33.856;151.182;2022-12-10T07:06:43;19.90;99.90
20803;DHT22;10562;-33.856;151.182;2022-12-10T07:09:14;19.80;99.90
20803;DHT22;10562;-33.856;151.182;2022-12-10T07:11:49;19.80;99.90
20803;DHT22;10562;-33.856;151.182;2022-12-10T07:14:20;19.80;99.90
20803;DHT22;10562;-33.856;151.182;2022-12-10T07:16:51;19.80;99.90
20803;DHT22;10562;-33.856;151.182;2022-12-10T07:19:22;19.70;99.90
20803;DHT22;10562;-33.856;151.182;2022-12-10T07:21:56;19.70;99.90
20803;DHT22;10562;-33.856;151.182;2022-12-10T07:24:27;19.70;99.90
20803;DHT22;10562;-33.856;151.182;2022-12-10T07:26:58;19.70;99.90
20803;DHT22;10562;-33.856;151.182;2022-12-10T07:29:29;19.70;99.90
20803;DHT22;10562;-33.856;151.182;2022-12-10T07:32:00;19.70;99.90
20803;DHT22;10562;-33.856;151.182;2022-12-10T07:34:31;19.70;99.90
20803;DHT22;10562;-33.856;151.182;2022-12-10T07:37:05;19.80;99.90
20803;DHT22;10562;-33.856;151.182;2022-12-10T07:39:36;19.70;99.90
20803;DHT22;10562;-33.856;151.182;2022-12-10T07:42:10;19.70;99.90
20803;DHT22;10562;-33.856;151.182;2022-12-10T07:44:41;19.70;99.90
20803;DHT22;10562;-33.856;151.182;2022-12-10T07:47:12;19.60;99.90
20803;DHT22;10562;-33.856;151.182;2022-12-10T07:49:43;19.60;99.90
20803;DHT22;10562;-33.856;151.182;2022-12-10T07:52:17;19.50;99.90
20803;DHT22;10562;-33.856;151.182;2022-12-10T07:54:48;19.50;99.90
20803;DHT22;10562;-33.856;151.182;2022-12-10T07:57:19;19.50;99.90
20803;DHT22;10562;-33.856;151.182;2022-12-10T07:59:50;19.50;99.90
20803;DHT22;10562;-33.856;151.182;2022-12-10T08:02:21;19.40;99.90
20803;DHT22;10562;-33.856;151.182;2022-12-10T08:04:52;19.40;99.90
20803;DHT22;10562;-33.856;151.182;2022-12-10T08:07:25;19.40;99.90
20803;DHT22;10562;-33.856;151.182;2022-12-10T08:09:56;19.40;99.90
20803;DHT22;10562;-33.856;151.182;2022-12-10T08:12:27;19.40;99.90
20803;DHT22;10562;-33.856;151.182;2022-12-10T08:14:57;19.40;99.90
20803;DHT22;10562;-33.856;151.182;2022-12-10T08:17:30;19.30;99.90
20803;DHT22;10562;-33.856;151.182;2022-12-10T08:20:01;19.30;99.90
20803;DHT22;10562;-33.856;151.182;2022-12-10T08:22:34;19.30;99.90
20803;DHT22;10562;-33.856;151.182;2022-12-10T08:25:05;19.30;99.90
20803;DHT22;10562;-33.856;151.182;2022-12-10T08:27:37;19.30;99.90
20803;DHT22;10562;-33.856;151.182;2022-12-10T08:30:08;19.20;99.90
20803;DHT22;10562;-33.856;151.182;2022-12-10T08:32:39;19.30;99.90
20803;DHT22;10562;-33.856;151.182;2022-12-10T08:35:10;19.30;99.90
20803;DHT22;10562;-33.856;151.182;2022-12-10T08:37:44;19.30;99.90
20803;DHT22;10562;-33.856;151.182;2022-12-10T08:40:15;19.20;99.90
20803;DHT22;10562;-33.856;151.182;2022-12-10T08:42:46;19.30;99.90
20803;DHT22;10562;-33.856;151.182;2022-12-10T08:45:17;19.30;99.90
20803;DHT22;10562;-33.856;151.182;2022-12-10T08:47:48;19.20;99.90
20803;DHT22;10562;-33.856;151.182;2022-12-10T08:50:19;19.20;99.90
20803;DHT22;10562;-33.856;151.182;2022-12-10T08:52:52;19.20;99.90
20803;DHT22;10562;-33.856;151.182;2022-12-10T08:55:23;19.10;99.90
20803;DHT22;10562;-33.856;151.182;2022-12-10T08:57:57;19.10;99.90
20803;DHT22;10562;-33.856;151.182;2022-12-10T09:00:28;19.20;99.90
20803;DHT22;10562;-33.856;151.182;2022-12-10T09:02:59;19.10;99.90
20803;DHT22;10562;-33.856;151.182;2022-12-10T09:05:30;19.10;99.90
20803;DHT22;10562;-33.856;151.182;2022-12-10T09:08:04;19.10;99.90
20803;DHT22;10562;-33.856;151.182;2022-12-10T09:10:36;18.90;99.90
20803;DHT22;10562;-33.856;151.182;2022-12-10T09:13:08;19.00;99.90
20803;DHT22;10562;-33.856;151.182;2022-12-10T09:15:40;18.90;99.90
20803;DHT22;10562;-33.856;151.182;2022-12-10T09:18:11;18.80;99.90
20803;DHT22;10562;-33.856;151.182;2022-12-10T09:20:42;18.80;99.90
20803;DHT22;10562;-33.856;151.182;2022-12-10T09:23:14;18.80;99.90
20803;DHT22;10562;-33.856;151.182;2022-12-10T09:25:45;18.70;99.90
20803;DHT22;10562;-33.856;151.182;2022-12-10T09:28:16;18.80;99.90
20803;DHT22;10562;-33.856;151.182;2022-12-10T09:30:56;18.90;99.90
20803;DHT22;10562;-33.856;151.182;2022-12-10T09:33:27;18.90;99.90
20803;DHT22;10562;-33.856;151.182;2022-12-10T09:35:58;18.90;99.90
20803;DHT22;10562;-33.856;151.182;2022-12-10T09:38:32;18.90;99.90
20803;DHT22;10562;-33.856;151.182;2022-12-10T09:41:04;18.80;99.90
20803;DHT22;10562;-33.856;151.182;2022-12-10T09:43:45;18.70;99.90
20803;DHT22;10562;-33.856;151.182;2022-12-10T09:46:23;18.70;99.90
20803;DHT22;10562;-33.856;151.182;2022-12-10T09:49:03;18.70;99.90
20803;DHT22;10562;-33.856;151.182;2022-12-10T09:51:38;18.70;99.90
20803;DHT22;10562;-33.856;151.182;2022-12-10T09:54:18;18.70;99.90
20803;DHT22;10562;-33.856;151.182;2022-12-10T09:56:50;18.70;99.90
20803;DHT22;10562;-33.856;151.182;2022-12-10T09:59:25;18.70;99.90
20803;DHT22;10562;-33.856;151.182;2022-12-10T10:02:03;18.60;99.90
20803;DHT22;10562;-33.856;151.182;2022-12-10T10:04:47;18.60;99.90
20803;DHT22;10562;-33.856;151.182;2022-12-10T10:07:21;18.50;99.90
20803;DHT22;10562;-33.856;151.182;2022-12-10T10:09:58;18.60;99.90
20803;DHT22;10562;-33.856;151.182;2022-12-10T10:12:31;18.60;99.90
20803;DHT22;10562;-33.856;151.182;2022-12-10T10:15:13;18.60;99.90
20803;DHT22;10562;-33.856;151.182;2022-12-10T10:17:45;18.60;99.90
20803;DHT22;10562;-33.856;151.182;2022-12-10T10:20:17;18.60;99.90
20803;DHT22;10562;-33.856;151.182;2022-12-10T10:22:49;18.60;99.90
20803;DHT22;10562;-33.856;151.182;2022-12-10T10:25:28;18.50;99.90
20803;DHT22;10562;-33.856;151.182;2022-12-10T10:27:59;18.40;99.90
20803;DHT22;10562;-33.856;151.182;2022-12-10T10:30:31;18.40;99.90
20803;DHT22;10562;-33.856;151.182;2022-12-10T10:33:07;18.50;99.90
20803;DHT22;10562;-33.856;151.182;2022-12-10T10:35:45;18.60;99.90
20803;DHT22;10562;-33.856;151.182;2022-12-10T10:38:20;18.60;99.90
20803;DHT22;10562;-33.856;151.182;2022-12-10T10:40:55;18.50;99.90
20803;DHT22;10562;-33.856;151.182;2022-12-10T10:43:28;18.50;99.90
20803;DHT22;10562;-33.856;151.182;2022-12-10T10:46:02;18.40;99.90
20803;DHT22;10562;-33.856;151.182;2022-12-10T10:48:34;18.30;99.90
20803;DHT22;10562;-33.856;151.182;2022-12-10T10:51:14;18.30;99.90
20803;DHT22;10562;-33.856;151.182;2022-12-10T10:53:47;18.30;99.90
20803;DHT22;10562;-33.856;151.182;2022-12-10T10:56:22;18.40;99.90
20803;DHT22;10562;-33.856;151.182;2022-12-10T10:58:58;18.40;99.90
20803;DHT22;10562;-33.856;151.182;2022-12-10T11:01:45;18.40;99.90
20803;DHT22;10562;-33.856;151.182;2022-12-10T11:04:28;18.50;99.90
20803;DHT22;10562;-33.856;151.182;2022-12-10T11:07:03;18.50;99.90
20803;DHT22;10562;-33.856;151.182;2022-12-10T11:09:37;18.40;99.90
20803;DHT22;10562;-33.856;151.182;2022-12-10T11:12:30;18.40;99.90
20803;DHT22;10562;-33.856;151.182;2022-12-10T11:15:29;18.40;99.90
20803;DHT22;10562;-33.856;151.182;2022-12-10T11:18:02;18.40;99.90
20803;DHT22;10562;-33.856;151.182;2022-12-10T11:20:34;18.40;99.90
20803;DHT22;10562;-33.856;151.182;2022-12-10T11:23:10;18.30;99.90
20803;DHT22;10562;-33.856;151.182;2022-12-10T11:25:47;18.40;99.90
20803;DHT22;10562;-33.856;151.182;2022-12-10T11:28:33;18.30;99.90
20803;DHT22;10562;-33.856;151.182;2022-12-10T11:31:29;18.20;99.90
20803;DHT22;10562;-33.856;151.182;2022-12-10T11:34:05;18.20;99.90
20803;DHT22;10562;-33.856;151.182;2022-12-10T11:36:41;18.10;99.90
20803;DHT22;10562;-33.856;151.182;2022-12-10T11:39:25;18.10;99.90
20803;DHT22;10562;-33.856;151.182;2022-12-10T11:42:07;18.20;99.90
20803;DHT22;10562;-33.856;151.182;2022-12-10T11:44:47;18.20;99.90
20803;DHT22;10562;-33.856;151.182;2022-12-10T11:47:34;18.10;99.90
20803;DHT22;10562;-33.856;151.182;2022-12-10T11:50:17;18.10;99.90
20803;DHT22;10562;-33.856;151.182;2022-12-10T11:53:09;18.20;99.90
20803;DHT22;10562;-33.856;151.182;2022-12-10T11:55:49;18.10;99.90
20803;DHT22;10562;-33.856;151.182;2022-12-10T11:58:42;18.10;99.90
20803;DHT22;10562;-33.856;151.182;2022-12-10T12:01:23;18.10;99.90
20803;DHT22;10562;-33.856;151.182;2022-12-10T12:04:23;18.10;99.90
20803;DHT22;10562;-33.856;151.182;2022-12-10T12:07:22;18.10;99.90
20803;DHT22;10562;-33.856;151.182;2022-12-10T12:10:17;18.00;99.90
20803;DHT22;10562;-33.856;151.182;2022-12-10T12:12:55;18.00;99.90
20803;DHT22;10562;-33.856;151.182;2022-12-10T12:15:30;17.90;99.90
20803;DHT22;10562;-33.856;151.182;2022-12-10T12:18:08;17.90;99.90
20803;DHT22;10562;-33.856;151.182;2022-12-10T12:20:46;17.80;99.90
20803;DHT22;10562;-33.856;151.182;2022-12-10T12:23:22;17.80;99.90
20803;DHT22;10562;-33.856;151.182;2022-12-10T12:25:58;17.80;99.90
20803;DHT22;10562;-33.856;151.182;2022-12-10T12:28:35;17.80;99.90
20803;DHT22;10562;-33.856;151.182;2022-12-10T12:31:10;17.80;99.90
20803;DHT22;10562;-33.856;151.182;2022-12-10T12:33:49;17.80;99.90
20803;DHT22;10562;-33.856;151.182;2022-12-10T12:36:22;17.70;99.90
20803;DHT22;10562;-33.856;151.182;2022-12-10T12:38:59;17.50;99.90
20803;DHT22;10562;-33.856;151.182;2022-12-10T12:41:36;17.30;99.90
20803;DHT22;10562;-33.856;151.182;2022-12-10T12:44:14;17.10;99.90
20803;DHT22;10562;-33.856;151.182;2022-12-10T12:46:49;16.90;99.90
20803;DHT22;10562;-33.856;151.182;2022-12-10T12:49:25;16.80;99.90
20803;DHT22;10562;-33.856;151.182;2022-12-10T12:52:02;16.80;99.90
20803;DHT22;10562;-33.856;151.182;2022-12-10T12:54:35;16.70;99.90
20803;DHT22;10562;-33.856;151.182;2022-12-10T12:57:10;16.70;99.90
20803;DHT22;10562;-33.856;151.182;2022-12-10T12:59:53;16.60;99.90
20803;DHT22;10562;-33.856;151.182;2022-12-10T13:02:43;16.50;99.90
20803;DHT22;10562;-33.856;151.182;2022-12-10T13:05:20;16.50;99.90
20803;DHT22;10562;-33.856;151.182;2022-12-10T13:08:23;16.50;99.90
20803;DHT22;10562;-33.856;151.182;2022-12-10T13:10:57;16.40;99.90
20803;DHT22;10562;-33.856;151.182;2022-12-10T13:13:32;16.40;99.90
20803;DHT22;10562;-33.856;151.182;2022-12-10T13:16:44;16.30;99.90
20803;DHT22;10562;-33.856;151.182;2022-12-10T13:19:26;16.30;99.90
20803;DHT22;10562;-33.856;151.182;2022-12-10T13:22:02;16.20;99.90
20803;DHT22;10562;-33.856;151.182;2022-12-10T13:25:11;16.10;99.90
20803;DHT22;10562;-33.856;151.182;2022-12-10T13:27:54;16.10;99.90
20803;DHT22;10562;-33.856;151.182;2022-12-10T13:30:33;16.00;99.90
20803;DHT22;10562;-33.856;151.182;2022-12-10T13:33:16;16.00;99.90
20803;DHT22;10562;-33.856;151.182;2022-12-10T13:35:58;16.00;99.90
20803;DHT22;10562;-33.856;151.182;2022-12-10T13:38:40;16.00;99.90
20803;DHT22;10562;-33.856;151.182;2022-12-10T13:41:12;15.90;99.90
20803;DHT22;10562;-33.856;151.182;2022-12-10T13:44:00;15.90;99.90
20803;DHT22;10562;-33.856;151.182;2022-12-10T13:47:00;15.90;99.90
20803;DHT22;10562;-33.856;151.182;2022-12-10T13:49:45;15.80;99.90
20803;DHT22;10562;-33.856;151.182;2022-12-10T13:52:22;15.80;99.90
20803;DHT22;10562;-33.856;151.182;2022-12-10T14:01:03;15.90;99.90
20803;DHT22;10562;-33.856;151.182;2022-12-10T14:04:14;15.90;99.90
20803;DHT22;10562;-33.856;151.182;2022-12-10T14:06:48;15.90;99.90
20803;DHT22;10562;-33.856;151.182;2022-12-10T14:09:23;15.90;99.90
20803;DHT22;10562;-33.856;151.182;2022-12-10T14:11:59;15.90;99.90
20803;DHT22;10562;-33.856;151.182;2022-12-10T14:14:33;15.90;99.90
20803;DHT22;10562;-33.856;151.182;2022-12-10T14:17:06;15.90;99.90
20803;DHT22;10562;-33.856;151.182;2022-12-10T14:19:41;15.90;99.90
20803;DHT22;10562;-33.856;151.182;2022-12-10T14:22:17;16.10;99.90
20803;DHT22;10562;-33.856;151.182;2022-12-10T14:24:51;16.10;99.90
20803;DHT22;10562;-33.856;151.182;2022-12-10T14:27:26;16.10;99.90
20803;DHT22;10562;-33.856;151.182;2022-12-10T14:30:02;16.00;99.90
20803;DHT22;10562;-33.856;151.182;2022-12-10T14:32:35;16.00;99.90
20803;DHT22;10562;-33.856;151.182;2022-12-10T14:35:11;15.90;99.90
20803;DHT22;10562;-33.856;151.182;2022-12-10T14:37:44;15.80;99.90
20803;DHT22;10562;-33.856;151.182;2022-12-10T14:40:21;15.80;99.90
20803;DHT22;10562;-33.856;151.182;2022-12-10T14:43:02;15.70;99.90
20803;DHT22;10562;-33.856;151.182;2022-12-10T14:45:42;15.60;99.90
20803;DHT22;10562;-33.856;151.182;2022-12-10T14:48:15;15.60;99.90
20803;DHT22;10562;-33.856;151.182;2022-12-10T14:50:47;15.60;99.90
20803;DHT22;10562;-33.856;151.182;2022-12-10T14:53:18;15.50;99.90
20803;DHT22;10562;-33.856;151.182;2022-12-10T14:55:51;15.50;99.90
20803;DHT22;10562;-33.856;151.182;2022-12-10T14:58:29;15.50;99.90
20803;DHT22;10562;-33.856;151.182;2022-12-10T15:01:02;15.50;99.90
20803;DHT22;10562;-33.856;151.182;2022-12-10T15:03:39;15.50;99.90
20803;DHT22;10562;-33.856;151.182;2022-12-10T15:06:16;15.40;99.90
20803;DHT22;10562;-33.856;151.182;2022-12-10T15:08:48;15.40;99.90
20803;DHT22;10562;-33.856;151.182;2022-12-10T15:11:20;15.50;99.90
20803;DHT22;10562;-33.856;151.182;2022-12-10T15:13:55;15.50;99.90
20803;DHT22;10562;-33.856;151.182;2022-12-10T15:16:37;15.40;99.90
20803;DHT22;10562;-33.856;151.182;2022-12-10T15:19:13;15.40;99.90
20803;DHT22;10562;-33.856;151.182;2022-12-10T15:21:46;15.40;99.90
20803;DHT22;10562;-33.856;151.182;2022-12-10T15:24:20;15.40;99.90
20803;DHT22;10562;-33.856;151.182;2022-12-10T15:26:52;15.40;99.90
20803;DHT22;10562;-33.856;151.182;2022-12-10T15:29:35;15.40;99.90
20803;DHT22;10562;-33.856;151.182;2022-12-10T15:32:10;15.30;99.90
20803;DHT22;10562;-33.856;151.182;2022-12-10T15:34:45;15.30;99.90
20803;DHT22;10562;-33.856;151.182;2022-12-10T15:37:22;15.30;99.90
20803;DHT22;10562;-33.856;151.182;2022-12-10T15:39:54;15.40;99.90
20803;DHT22;10562;-33.856;151.182;2022-12-10T15:42:38;15.40;99.90